Etusivu
METAR-TAF:

METAR-TAF

Lentoasemat :

Harbin, Kiina

Leveyspiiri: 45-45N, Pituuspiiri: 126-46E, korkeus merenpinnasta: 143 m

Tämänhetkinen sää

Tämä raportti tehtiin 1 tunti ja 1 minuuttia sitten, kello 09.00 UTC
Tuuli 4 kn pohjoisesta
Lämpötila 1°C
Kosteus 29%
Ilmanpaine 1027 hPa
Näkyvyys 10 km tai enemmän
ei pilviä alle 1500 m:ssä eikä cumulonimbus-pilviä

METAR: ZYHB 220900Z 01002MPS CAVOK 01/M15 Q1027 NOSIG

Aika: 18:01 (10:01 UTC)

Sääennuste

Tämä raportti tehtiin 6 tuntia ja 44 minuuttia sitten, kello 03.17 UTC
Ennuste voimassa 22. päivästä klo 06 UTC - 23. päivään klo 06 UTC
Tuuli 6 kn pohjoisesta
Näkyvyys: 5000 m
utua

TAF: ZYHB 220317Z 2206/2306 36003MPS 5000 BR NSC TX06/2206Z TNM08/22Z

Säähavainnot ja -ennusteet yli 4000 lentoasemalta (METAR- ja TAF-raportit).

Käytössä olevat sääasemat on merkitty karttaan keltaisilla ja punaisilla pisteillä.

Aseta hiiri pisteen päälle nähdäksesi sääaseman nimen.

Klikkaa sitten nähdäksesi säähavainnot ja -ennusteet.

Kartan vaihtaminen: klikkaa mustalla rastilla varustettuja vihreitä pisteitä, niin voit zoomata sisään; viivalla varustettua vihreää pistettä, niin voit zoomata ulos tai vihreitä nuolia, niin pääset viereisille kartoille.


METAR-TAF: